[CLOSED] London Luton/EGGW on Advanced 🇬🇧

Hello all!

@MatteoSerra24 and I are at Luton for a while tonight.

Tower, ground, approach and departure (+ ATIS) are all online.
Pattern work and touch and goes are accepted!

We’re looking to provide the best service that you’ll find on the Advanced Server tonight!
Let us know how we do! ☺️

Active runway: 08
METAR: EGGW 291850Z 05007KT CAVOK 12/09 Q1034

Ground information is below, please read annotations:
image

4 Likes

You were both really good, I was any airline with 187 at the end, I’m sorry about forgetting to contact you for taxiing to parking

1 Like

No problem :)